sensor_id;sensor_type;location;lat;lon;timestamp;P1;durP1;ratioP1;P2;durP2;ratioP2
15679;SDS011;15488;48.114;11.532;2023-07-22T00:02:04;3.20;;;2.70;;
15679;SDS011;15488;48.114;11.532;2023-07-22T00:04:33;6.00;;;3.50;;
15679;SDS011;15488;48.114;11.532;2023-07-22T00:07:01;5.70;;;4.73;;
15679;SDS011;15488;48.114;11.532;2023-07-22T00:09:28;5.07;;;4.07;;
15679;SDS011;15488;48.114;11.532;2023-07-22T00:11:58;4.50;;;3.60;;
15679;SDS011;15488;48.114;11.532;2023-07-22T00:14:26;3.40;;;3.10;;
15679;SDS011;15488;48.114;11.532;2023-07-22T00:16:53;3.40;;;2.70;;
15679;SDS011;15488;48.114;11.532;2023-07-22T00:19:21;2.97;;;2.67;;
15679;SDS011;15488;48.114;11.532;2023-07-22T00:21:50;3.60;;;2.93;;
15679;SDS011;15488;48.114;11.532;2023-07-22T00:24:18;3.07;;;2.77;;
15679;SDS011;15488;48.114;11.532;2023-07-22T00:26:47;4.60;;;2.90;;
15679;SDS011;15488;48.114;11.532;2023-07-22T00:29:15;3.07;;;2.77;;
15679;SDS011;15488;48.114;11.532;2023-07-22T00:31:43;3.20;;;2.70;;
15679;SDS011;15488;48.114;11.532;2023-07-22T00:34:10;2.70;;;2.30;;
15679;SDS011;15488;48.114;11.532;2023-07-22T00:36:38;3.77;;;2.60;;
15679;SDS011;15488;48.114;11.532;2023-07-22T00:39:07;3.67;;;2.83;;
15679;SDS011;15488;48.114;11.532;2023-07-22T00:41:34;3.33;;;2.50;;
15679;SDS011;15488;48.114;11.532;2023-07-22T00:44:02;3.83;;;3.10;;
15679;SDS011;15488;48.114;11.532;2023-07-22T00:46:29;3.73;;;2.67;;
15679;SDS011;15488;48.114;11.532;2023-07-22T00:48:57;5.40;;;4.67;;
15679;SDS011;15488;48.114;11.532;2023-07-22T00:51:24;6.93;;;5.10;;
15679;SDS011;15488;48.114;11.532;2023-07-22T00:53:52;5.50;;;4.37;;
15679;SDS011;15488;48.114;11.532;2023-07-22T00:56:21;6.40;;;4.93;;
15679;SDS011;15488;48.114;11.532;2023-07-22T00:58:48;4.27;;;3.57;;
15679;SDS011;15488;48.114;11.532;2023-07-22T01:01:16;6.07;;;3.07;;
15679;SDS011;15488;48.114;11.532;2023-07-22T01:03:43;2.97;;;2.67;;
15679;SDS011;15488;48.114;11.532;2023-07-22T01:06:12;4.00;;;3.60;;
15679;SDS011;15488;48.114;11.532;2023-07-22T01:08:42;3.37;;;3.07;;
15679;SDS011;15488;48.114;11.532;2023-07-22T01:11:09;5.07;;;3.90;;
15679;SDS011;15488;48.114;11.532;2023-07-22T01:13:39;5.33;;;3.93;;
15679;SDS011;15488;48.114;11.532;2023-07-22T01:16:06;4.30;;;3.07;;
15679;SDS011;15488;48.114;11.532;2023-07-22T01:18:34;6.40;;;3.43;;
15679;SDS011;15488;48.114;11.532;2023-07-22T01:21:01;3.50;;;2.73;;
15679;SDS011;15488;48.114;11.532;2023-07-22T01:23:31;3.70;;;3.03;;
15679;SDS011;15488;48.114;11.532;2023-07-22T01:25:58;4.73;;;3.83;;
15679;SDS011;15488;48.114;11.532;2023-07-22T01:28:26;5.70;;;3.63;;
15679;SDS011;15488;48.114;11.532;2023-07-22T01:30:54;3.40;;;2.70;;
15679;SDS011;15488;48.114;11.532;2023-07-22T01:33:21;2.80;;;2.60;;
15679;SDS011;15488;48.114;11.532;2023-07-22T01:35:48;2.80;;;2.60;;
15679;SDS011;15488;48.114;11.532;2023-07-22T01:38:17;2.63;;;2.43;;
15679;SDS011;15488;48.114;11.532;2023-07-22T01:40:45;3.03;;;2.63;;
15679;SDS011;15488;48.114;11.532;2023-07-22T01:43:13;2.90;;;2.60;;
15679;SDS011;15488;48.114;11.532;2023-07-22T01:45:40;2.70;;;2.50;;
15679;SDS011;15488;48.114;11.532;2023-07-22T01:48:08;5.40;;;2.87;;
15679;SDS011;15488;48.114;11.532;2023-07-22T01:50:36;3.50;;;2.90;;
15679;SDS011;15488;48.114;11.532;2023-07-22T01:53:03;3.47;;;2.90;;
15679;SDS011;15488;48.114;11.532;2023-07-22T01:55:31;3.83;;;2.80;;
15679;SDS011;15488;48.114;11.532;2023-07-22T01:58:00;3.43;;;2.63;;
15679;SDS011;15488;48.114;11.532;2023-07-22T02:00:27;3.93;;;2.97;;
15679;SDS011;15488;48.114;11.532;2023-07-22T02:02:55;3.93;;;2.80;;
15679;SDS011;15488;48.114;11.532;2023-07-22T02:05:23;3.33;;;2.80;;
15679;SDS011;15488;48.114;11.532;2023-07-22T02:07:52;3.07;;;2.63;;
15679;SDS011;15488;48.114;11.532;2023-07-22T02:10:20;4.13;;;2.90;;
15679;SDS011;15488;48.114;11.532;2023-07-22T02:12:47;3.33;;;3.03;;
15679;SDS011;15488;48.114;11.532;2023-07-22T02:15:16;4.03;;;2.73;;
15679;SDS011;15488;48.114;11.532;2023-07-22T02:17:46;4.83;;;2.60;;
15679;SDS011;15488;48.114;11.532;2023-07-22T02:20:14;3.43;;;2.83;;
15679;SDS011;15488;48.114;11.532;2023-07-22T02:22:42;3.70;;;2.73;;
15679;SDS011;15488;48.114;11.532;2023-07-22T02:25:09;3.00;;;2.70;;
15679;SDS011;15488;48.114;11.532;2023-07-22T02:27:37;3.27;;;2.73;;
15679;SDS011;15488;48.114;11.532;2023-07-22T02:30:06;3.13;;;2.83;;
15679;SDS011;15488;48.114;11.532;2023-07-22T02:32:38;3.03;;;2.73;;
15679;SDS011;15488;48.114;11.532;2023-07-22T02:35:06;3.23;;;2.80;;
15679;SDS011;15488;48.114;11.532;2023-07-22T02:37:36;2.93;;;2.73;;
15679;SDS011;15488;48.114;11.532;2023-07-22T02:40:05;5.97;;;3.17;;
15679;SDS011;15488;48.114;11.532;2023-07-22T02:42:36;4.60;;;3.07;;
15679;SDS011;15488;48.114;11.532;2023-07-22T02:45:04;4.00;;;3.00;;
15679;SDS011;15488;48.114;11.532;2023-07-22T02:47:33;5.57;;;2.87;;
15679;SDS011;15488;48.114;11.532;2023-07-22T02:50:02;3.13;;;2.80;;
15679;SDS011;15488;48.114;11.532;2023-07-22T02:52:30;3.40;;;3.10;;
15679;SDS011;15488;48.114;11.532;2023-07-22T02:55:05;3.63;;;2.70;;
15679;SDS011;15488;48.114;11.532;2023-07-22T02:57:35;4.87;;;2.93;;
15679;SDS011;15488;48.114;11.532;2023-07-22T03:00:03;2.87;;;2.47;;
15679;SDS011;15488;48.114;11.532;2023-07-22T03:02:33;4.50;;;3.17;;
15679;SDS011;15488;48.114;11.532;2023-07-22T03:05:02;3.33;;;2.63;;
15679;SDS011;15488;48.114;11.532;2023-07-22T03:07:33;2.90;;;2.70;;
15679;SDS011;15488;48.114;11.532;2023-07-22T03:10:00;5.30;;;3.60;;
15679;SDS011;15488;48.114;11.532;2023-07-22T03:12:28;3.10;;;2.60;;
15679;SDS011;15488;48.114;11.532;2023-07-22T03:14:55;2.87;;;2.57;;
15679;SDS011;15488;48.114;11.532;2023-07-22T03:17:23;3.00;;;2.70;;
15679;SDS011;15488;48.114;11.532;2023-07-22T03:19:50;3.50;;;2.83;;
15679;SDS011;15488;48.114;11.532;2023-07-22T03:22:19;2.97;;;2.53;;
15679;SDS011;15488;48.114;11.532;2023-07-22T03:24:47;3.87;;;3.10;;
15679;SDS011;15488;48.114;11.532;2023-07-22T03:27:14;3.03;;;2.73;;
15679;SDS011;15488;48.114;11.532;2023-07-22T03:29:42;4.07;;;3.07;;
15679;SDS011;15488;48.114;11.532;2023-07-22T03:32:10;4.37;;;2.70;;
15679;SDS011;15488;48.114;11.532;2023-07-22T03:34:49;2.90;;;2.67;;
15679;SDS011;15488;48.114;11.532;2023-07-22T03:37:17;3.60;;;2.87;;
15679;SDS011;15488;48.114;11.532;2023-07-22T03:39:46;3.60;;;2.90;;
15679;SDS011;15488;48.114;11.532;2023-07-22T03:42:13;2.93;;;2.63;;
15679;SDS011;15488;48.114;11.532;2023-07-22T03:44:41;3.30;;;2.80;;
15679;SDS011;15488;48.114;11.532;2023-07-22T03:47:08;3.20;;;2.90;;
15679;SDS011;15488;48.114;11.532;2023-07-22T03:49:36;3.40;;;2.80;;
15679;SDS011;15488;48.114;11.532;2023-07-22T03:52:03;3.33;;;2.70;;
15679;SDS011;15488;48.114;11.532;2023-07-22T03:54:33;3.30;;;2.70;;
15679;SDS011;15488;48.114;11.532;2023-07-22T03:57:01;3.00;;;2.70;;
15679;SDS011;15488;48.114;11.532;2023-07-22T03:59:28;4.10;;;3.00;;
15679;SDS011;15488;48.114;11.532;2023-07-22T04:01:56;3.23;;;2.90;;
15679;SDS011;15488;48.114;11.532;2023-07-22T04:04:23;3.97;;;2.80;;
15679;SDS011;15488;48.114;11.532;2023-07-22T04:06:51;3.00;;;2.77;;
15679;SDS011;15488;48.114;11.532;2023-07-22T04:09:18;4.10;;;2.80;;
15679;SDS011;15488;48.114;11.532;2023-07-22T04:11:47;2.80;;;2.60;;
15679;SDS011;15488;48.114;11.532;2023-07-22T04:14:18;3.20;;;2.90;;
15679;SDS011;15488;48.114;11.532;2023-07-22T04:16:45;3.53;;;2.97;;
15679;SDS011;15488;48.114;11.532;2023-07-22T04:19:13;5.07;;;2.80;;
15679;SDS011;15488;48.114;11.532;2023-07-22T04:21:44;3.40;;;3.10;;
15679;SDS011;15488;48.114;11.532;2023-07-22T04:24:11;3.77;;;2.73;;
15679;SDS011;15488;48.114;11.532;2023-07-22T04:26:40;4.50;;;3.07;;
15679;SDS011;15488;48.114;11.532;2023-07-22T04:29:11;3.27;;;2.80;;
15679;SDS011;15488;48.114;11.532;2023-07-22T04:31:38;3.37;;;2.90;;
15679;SDS011;15488;48.114;11.532;2023-07-22T04:34:06;3.73;;;2.70;;
15679;SDS011;15488;48.114;11.532;2023-07-22T04:36:37;3.27;;;2.97;;
15679;SDS011;15488;48.114;11.532;2023-07-22T04:39:08;3.40;;;2.77;;
15679;SDS011;15488;48.114;11.532;2023-07-22T04:41:35;3.03;;;2.77;;
15679;SDS011;15488;48.114;11.532;2023-07-22T04:44:04;2.97;;;2.63;;
15679;SDS011;15488;48.114;11.532;2023-07-22T04:46:33;4.37;;;2.70;;
15679;SDS011;15488;48.114;11.532;2023-07-22T04:49:00;2.87;;;2.50;;
15679;SDS011;15488;48.114;11.532;2023-07-22T04:51:28;3.20;;;2.90;;
15679;SDS011;15488;48.114;11.532;2023-07-22T04:53:57;3.13;;;2.83;;
15679;SDS011;15488;48.114;11.532;2023-07-22T04:56:24;3.67;;;3.00;;
15679;SDS011;15488;48.114;11.532;2023-07-22T04:58:52;2.90;;;2.67;;
15679;SDS011;15488;48.114;11.532;2023-07-22T05:01:19;3.40;;;2.60;;
15679;SDS011;15488;48.114;11.532;2023-07-22T05:03:49;4.17;;;2.80;;
15679;SDS011;15488;48.114;11.532;2023-07-22T05:06:20;5.17;;;2.43;;
15679;SDS011;15488;48.114;11.532;2023-07-22T05:08:49;2.90;;;2.60;;
15679;SDS011;15488;48.114;11.532;2023-07-22T05:11:16;4.37;;;3.00;;
15679;SDS011;15488;48.114;11.532;2023-07-22T05:13:44;3.40;;;2.43;;
15679;SDS011;15488;48.114;11.532;2023-07-22T05:16:14;4.33;;;2.60;;
15679;SDS011;15488;48.114;11.532;2023-07-22T05:18:41;2.83;;;2.63;;
15679;SDS011;15488;48.114;11.532;2023-07-22T05:21:10;3.00;;;2.63;;
15679;SDS011;15488;48.114;11.532;2023-07-22T05:23:38;2.77;;;2.30;;
15679;SDS011;15488;48.114;11.532;2023-07-22T05:26:05;2.80;;;2.33;;
15679;SDS011;15488;48.114;11.532;2023-07-22T05:28:35;3.87;;;2.30;;
15679;SDS011;15488;48.114;11.532;2023-07-22T05:31:02;3.00;;;2.70;;
15679;SDS011;15488;48.114;11.532;2023-07-22T05:33:30;2.90;;;2.40;;
15679;SDS011;15488;48.114;11.532;2023-07-22T05:35:57;3.10;;;2.57;;
15679;SDS011;15488;48.114;11.532;2023-07-22T05:38:26;3.10;;;2.50;;
15679;SDS011;15488;48.114;11.532;2023-07-22T05:40:56;2.70;;;2.33;;
15679;SDS011;15488;48.114;11.532;2023-07-22T05:43:26;2.73;;;2.47;;
15679;SDS011;15488;48.114;11.532;2023-07-22T05:45:53;2.70;;;2.20;;
15679;SDS011;15488;48.114;11.532;2023-07-22T05:48:21;4.37;;;2.37;;
15679;SDS011;15488;48.114;11.532;2023-07-22T05:50:48;2.47;;;2.27;;
15679;SDS011;15488;48.114;11.532;2023-07-22T05:53:16;2.40;;;2.20;;
15679;SDS011;15488;48.114;11.532;2023-07-22T05:55:45;3.43;;;2.30;;
15679;SDS011;15488;48.114;11.532;2023-07-22T05:58:16;4.07;;;2.47;;
15679;SDS011;15488;48.114;11.532;2023-07-22T06:00:47;3.57;;;2.53;;
15679;SDS011;15488;48.114;11.532;2023-07-22T06:03:19;3.40;;;2.70;;
15679;SDS011;15488;48.114;11.532;2023-07-22T06:05:47;2.53;;;2.33;;
15679;SDS011;15488;48.114;11.532;2023-07-22T06:08:17;3.10;;;2.53;;
15679;SDS011;15488;48.114;11.532;2023-07-22T06:10:46;3.77;;;2.83;;
15679;SDS011;15488;48.114;11.532;2023-07-22T06:13:13;2.33;;;2.00;;
15679;SDS011;15488;48.114;11.532;2023-07-22T06:15:41;2.93;;;2.23;;
15679;SDS011;15488;48.114;11.532;2023-07-22T06:18:08;2.70;;;2.50;;
15679;SDS011;15488;48.114;11.532;2023-07-22T06:20:36;2.83;;;2.23;;
15679;SDS011;15488;48.114;11.532;2023-07-22T06:23:03;2.30;;;2.10;;
15679;SDS011;15488;48.114;11.532;2023-07-22T06:25:32;3.43;;;2.17;;
15679;SDS011;15488;48.114;11.532;2023-07-22T06:28:04;3.20;;;2.30;;
15679;SDS011;15488;48.114;11.532;2023-07-22T06:30:32;2.20;;;2.00;;
15679;SDS011;15488;48.114;11.532;2023-07-22T06:32:59;2.33;;;2.13;;
15679;SDS011;15488;48.114;11.532;2023-07-22T06:35:27;3.83;;;2.50;;
15679;SDS011;15488;48.114;11.532;2023-07-22T06:37:55;2.90;;;1.83;;
15679;SDS011;15488;48.114;11.532;2023-07-22T06:40:23;2.77;;;2.10;;
15679;SDS011;15488;48.114;11.532;2023-07-22T06:42:53;2.57;;;2.13;;
15679;SDS011;15488;48.114;11.532;2023-07-22T06:45:22;3.00;;;2.13;;
15679;SDS011;15488;48.114;11.532;2023-07-22T06:47:50;3.03;;;2.33;;
15679;SDS011;15488;48.114;11.532;2023-07-22T06:50:17;3.23;;;2.13;;
15679;SDS011;15488;48.114;11.532;2023-07-22T06:52:45;2.27;;;2.03;;
15679;SDS011;15488;48.114;11.532;2023-07-22T06:55:12;3.50;;;2.20;;
15679;SDS011;15488;48.114;11.532;2023-07-22T06:57:40;2.30;;;2.10;;
15679;SDS011;15488;48.114;11.532;2023-07-22T07:00:08;3.27;;;1.90;;
15679;SDS011;15488;48.114;11.532;2023-07-22T07:02:37;3.67;;;2.20;;
15679;SDS011;15488;48.114;11.532;2023-07-22T07:05:05;2.23;;;1.87;;
15679;SDS011;15488;48.114;11.532;2023-07-22T07:07:33;2.77;;;2.10;;
15679;SDS011;15488;48.114;11.532;2023-07-22T07:10:00;2.87;;;1.90;;
15679;SDS011;15488;48.114;11.532;2023-07-22T07:12:28;2.10;;;1.90;;
15679;SDS011;15488;48.114;11.532;2023-07-22T07:14:55;2.00;;;1.80;;
15679;SDS011;15488;48.114;11.532;2023-07-22T07:17:22;1.73;;;1.60;;
15679;SDS011;15488;48.114;11.532;2023-07-22T07:19:52;2.10;;;1.90;;
15679;SDS011;15488;48.114;11.532;2023-07-22T07:22:19;2.10;;;1.90;;
15679;SDS011;15488;48.114;11.532;2023-07-22T07:24:47;2.47;;;2.10;;
15679;SDS011;15488;48.114;11.532;2023-07-22T07:27:14;2.30;;;2.00;;
15679;SDS011;15488;48.114;11.532;2023-07-22T07:29:41;3.00;;;2.00;;
15679;SDS011;15488;48.114;11.532;2023-07-22T07:32:09;3.00;;;2.00;;
15679;SDS011;15488;48.114;11.532;2023-07-22T07:34:37;2.53;;;2.07;;
15679;SDS011;15488;48.114;11.532;2023-07-22T07:37:06;2.33;;;1.70;;
15679;SDS011;15488;48.114;11.532;2023-07-22T07:39:33;2.17;;;1.93;;
15679;SDS011;15488;48.114;11.532;2023-07-22T07:42:01;2.47;;;1.80;;
15679;SDS011;15488;48.114;11.532;2023-07-22T07:44:28;2.43;;;1.60;;
15679;SDS011;15488;48.114;11.532;2023-07-22T07:46:56;1.70;;;1.60;;
15679;SDS011;15488;48.114;11.532;2023-07-22T07:49:23;2.40;;;1.80;;
15679;SDS011;15488;48.114;11.532;2023-07-22T07:51:51;1.63;;;1.53;;
15679;SDS011;15488;48.114;11.532;2023-07-22T07:54:20;1.83;;;1.60;;
15679;SDS011;15488;48.114;11.532;2023-07-22T07:56:47;2.20;;;1.90;;
15679;SDS011;15488;48.114;11.532;2023-07-22T07:59:15;2.27;;;1.70;;
15679;SDS011;15488;48.114;11.532;2023-07-22T08:01:42;1.70;;;1.60;;
15679;SDS011;15488;48.114;11.532;2023-07-22T08:04:10;1.53;;;1.43;;
15679;SDS011;15488;48.114;11.532;2023-07-22T08:06:38;3.93;;;1.83;;
15679;SDS011;15488;48.114;11.532;2023-07-22T08:09:06;2.80;;;1.70;;
15679;SDS011;15488;48.114;11.532;2023-07-22T08:11:37;2.00;;;1.80;;
15679;SDS011;15488;48.114;11.532;2023-07-22T08:14:04;2.10;;;1.70;;
15679;SDS011;15488;48.114;11.532;2023-07-22T08:16:33;1.70;;;1.60;;
15679;SDS011;15488;48.114;11.532;2023-07-22T08:19:00;2.37;;;1.30;;
15679;SDS011;15488;48.114;11.532;2023-07-22T08:21:29;2.40;;;1.70;;
15679;SDS011;15488;48.114;11.532;2023-07-22T08:23:56;2.10;;;1.60;;
15679;SDS011;15488;48.114;11.532;2023-07-22T08:26:24;2.20;;;1.53;;
15679;SDS011;15488;48.114;11.532;2023-07-22T08:28:53;2.27;;;1.80;;
15679;SDS011;15488;48.114;11.532;2023-07-22T08:31:20;2.13;;;1.50;;
15679;SDS011;15488;48.114;11.532;2023-07-22T08:33:48;1.67;;;1.40;;
15679;SDS011;15488;48.114;11.532;2023-07-22T08:36:15;1.80;;;1.70;;
15679;SDS011;15488;48.114;11.532;2023-07-22T08:38:43;2.00;;;1.30;;
15679;SDS011;15488;48.114;11.532;2023-07-22T08:41:13;1.87;;;1.43;;
15679;SDS011;15488;48.114;11.532;2023-07-22T08:43:42;1.83;;;1.30;;
15679;SDS011;15488;48.114;11.532;2023-07-22T08:46:14;1.33;;;1.23;;
15679;SDS011;15488;48.114;11.532;2023-07-22T08:48:46;2.73;;;1.57;;
15679;SDS011;15488;48.114;11.532;2023-07-22T08:51:15;1.60;;;1.50;;
15679;SDS011;15488;48.114;11.532;2023-07-22T08:53:44;1.40;;;1.30;;
15679;SDS011;15488;48.114;11.532;2023-07-22T08:56:12;1.47;;;1.20;;
15679;SDS011;15488;48.114;11.532;2023-07-22T08:58:40;2.20;;;2.00;;
15679;SDS011;15488;48.114;11.532;2023-07-22T09:01:09;1.90;;;1.70;;
15679;SDS011;15488;48.114;11.532;2023-07-22T09:03:39;1.73;;;1.23;;
15679;SDS011;15488;48.114;11.532;2023-07-22T09:06:07;3.00;;;1.50;;
15679;SDS011;15488;48.114;11.532;2023-07-22T09:08:34;1.83;;;1.53;;
15679;SDS011;15488;48.114;11.532;2023-07-22T09:11:03;2.17;;;1.67;;
15679;SDS011;15488;48.114;11.532;2023-07-22T09:13:32;1.67;;;1.27;;
15679;SDS011;15488;48.114;11.532;2023-07-22T09:16:00;1.33;;;1.23;;
15679;SDS011;15488;48.114;11.532;2023-07-22T09:18:28;2.03;;;1.30;;
15679;SDS011;15488;48.114;11.532;2023-07-22T09:20:59;1.83;;;1.37;;
15679;SDS011;15488;48.114;11.532;2023-07-22T09:23:31;2.33;;;1.67;;
15679;SDS011;15488;48.114;11.532;2023-07-22T09:26:08;2.40;;;1.30;;
15679;SDS011;15488;48.114;11.532;2023-07-22T09:28:47;1.50;;;1.40;;
15679;SDS011;15488;48.114;11.532;2023-07-22T09:31:15;1.43;;;1.30;;
15679;SDS011;15488;48.114;11.532;2023-07-22T09:33:42;1.93;;;1.40;;
15679;SDS011;15488;48.114;11.532;2023-07-22T09:36:11;1.47;;;1.27;;
15679;SDS011;15488;48.114;11.532;2023-07-22T09:38:39;1.37;;;1.27;;
15679;SDS011;15488;48.114;11.532;2023-07-22T09:41:06;2.50;;;1.77;;
15679;SDS011;15488;48.114;11.532;2023-07-22T09:43:38;2.27;;;1.50;;
15679;SDS011;15488;48.114;11.532;2023-07-22T09:46:06;2.03;;;1.50;;
15679;SDS011;15488;48.114;11.532;2023-07-22T09:48:41;3.90;;;1.27;;
15679;SDS011;15488;48.114;11.532;2023-07-22T09:51:15;1.37;;;1.27;;
15679;SDS011;15488;48.114;11.532;2023-07-22T09:53:46;2.00;;;1.30;;
15679;SDS011;15488;48.114;11.532;2023-07-22T09:56:14;1.77;;;1.30;;
15679;SDS011;15488;48.114;11.532;2023-07-22T09:58:41;2.30;;;1.40;;
15679;SDS011;15488;48.114;11.532;2023-07-22T10:01:12;1.50;;;1.40;;
15679;SDS011;15488;48.114;11.532;2023-07-22T10:03:41;1.30;;;1.20;;
15679;SDS011;15488;48.114;11.532;2023-07-22T10:06:11;1.77;;;1.37;;
15679;SDS011;15488;48.114;11.532;2023-07-22T10:08:41;1.80;;;1.53;;
15679;SDS011;15488;48.114;11.532;2023-07-22T10:11:13;1.40;;;1.30;;
15679;SDS011;15488;48.114;11.532;2023-07-22T10:13:41;1.37;;;1.23;;
15679;SDS011;15488;48.114;11.532;2023-07-22T10:16:09;1.33;;;1.23;;
15679;SDS011;15488;48.114;11.532;2023-07-22T10:18:38;2.20;;;1.40;;
15679;SDS011;15488;48.114;11.532;2023-07-22T10:21:08;4.03;;;2.07;;
15679;SDS011;15488;48.114;11.532;2023-07-22T10:23:37;1.53;;;1.37;;
15679;SDS011;15488;48.114;11.532;2023-07-22T10:26:06;1.63;;;1.07;;
15679;SDS011;15488;48.114;11.532;2023-07-22T10:28:35;1.37;;;1.27;;
15679;SDS011;15488;48.114;11.532;2023-07-22T10:31:05;1.97;;;1.20;;
15679;SDS011;15488;48.114;11.532;2023-07-22T10:33:33;2.07;;;1.60;;
15679;SDS011;15488;48.114;11.532;2023-07-22T10:36:03;1.40;;;1.30;;
15679;SDS011;15488;48.114;11.532;2023-07-22T10:38:31;1.40;;;1.30;;
15679;SDS011;15488;48.114;11.532;2023-07-22T10:41:01;1.40;;;1.30;;
15679;SDS011;15488;48.114;11.532;2023-07-22T10:43:38;1.50;;;1.40;;
15679;SDS011;15488;48.114;11.532;2023-07-22T10:46:08;1.53;;;1.40;;
15679;SDS011;15488;48.114;11.532;2023-07-22T10:48:37;1.80;;;1.60;;
15679;SDS011;15488;48.114;11.532;2023-07-22T10:51:10;1.83;;;1.63;;
15679;SDS011;15488;48.114;11.532;2023-07-22T10:53:40;2.23;;;1.47;;
15679;SDS011;15488;48.114;11.532;2023-07-22T10:56:14;2.03;;;1.47;;
15679;SDS011;15488;48.114;11.532;2023-07-22T10:59:00;2.00;;;1.20;;
15679;SDS011;15488;48.114;11.532;2023-07-22T11:01:38;1.57;;;1.40;;
15679;SDS011;15488;48.114;11.532;2023-07-22T11:04:12;2.00;;;1.50;;
15679;SDS011;15488;48.114;11.532;2023-07-22T11:06:51;1.30;;;1.20;;
15679;SDS011;15488;48.114;11.532;2023-07-22T11:09:38;1.60;;;1.50;;
15679;SDS011;15488;48.114;11.532;2023-07-22T11:12:11;1.47;;;1.37;;
15679;SDS011;15488;48.114;11.532;2023-07-22T11:14:45;2.83;;;1.50;;
15679;SDS011;15488;48.114;11.532;2023-07-22T11:17:14;2.03;;;1.73;;
15679;SDS011;15488;48.114;11.532;2023-07-22T11:19:43;1.60;;;1.50;;
15679;SDS011;15488;48.114;11.532;2023-07-22T11:22:14;2.17;;;1.40;;
15679;SDS011;15488;48.114;11.532;2023-07-22T11:24:44;1.43;;;1.33;;
15679;SDS011;15488;48.114;11.532;2023-07-22T11:27:12;2.70;;;1.47;;
15679;SDS011;15488;48.114;11.532;2023-07-22T11:29:41;1.53;;;1.43;;
15679;SDS011;15488;48.114;11.532;2023-07-22T11:32:14;1.53;;;1.43;;
15679;SDS011;15488;48.114;11.532;2023-07-22T11:34:42;2.17;;;1.73;;
15679;SDS011;15488;48.114;11.532;2023-07-22T11:37:10;2.30;;;1.30;;
15679;SDS011;15488;48.114;11.532;2023-07-22T11:39:40;1.63;;;1.50;;
15679;SDS011;15488;48.114;11.532;2023-07-22T11:42:09;1.97;;;1.63;;
15679;SDS011;15488;48.114;11.532;2023-07-22T11:44:38;1.60;;;1.50;;
15679;SDS011;15488;48.114;11.532;2023-07-22T11:47:06;2.83;;;1.70;;
15679;SDS011;15488;48.114;11.532;2023-07-22T11:49:35;1.73;;;1.53;;
15679;SDS011;15488;48.114;11.532;2023-07-22T11:52:03;1.87;;;1.37;;
15679;SDS011;15488;48.114;11.532;2023-07-22T11:54:32;1.50;;;1.40;;
15679;SDS011;15488;48.114;11.532;2023-07-22T11:57:10;1.73;;;1.63;;
15679;SDS011;15488;48.114;11.532;2023-07-22T11:59:43;1.83;;;1.50;;
15679;SDS011;15488;48.114;11.532;2023-07-22T12:02:12;1.42;;;1.33;;
15679;SDS011;15488;48.114;11.532;2023-07-22T12:04:40;2.28;;;1.70;;
15679;SDS011;15488;48.114;11.532;2023-07-22T12:07:12;1.77;;;1.67;;
15679;SDS011;15488;48.114;11.532;2023-07-22T12:09:49;1.77;;;1.67;;
15679;SDS011;15488;48.114;11.532;2023-07-22T12:12:17;2.92;;;1.40;;
15679;SDS011;15488;48.114;11.532;2023-07-22T12:14:46;2.58;;;1.65;;
15679;SDS011;15488;48.114;11.532;2023-07-22T12:17:13;2.50;;;1.48;;
15679;SDS011;15488;48.114;11.532;2023-07-22T12:19:50;2.60;;;1.60;;
15679;SDS011;15488;48.114;11.532;2023-07-22T12:22:18;1.50;;;1.40;;
15679;SDS011;15488;48.114;11.532;2023-07-22T12:24:46;2.05;;;1.88;;
15679;SDS011;15488;48.114;11.532;2023-07-22T12:27:14;1.70;;;1.60;;
15679;SDS011;15488;48.114;11.532;2023-07-22T12:29:42;2.20;;;1.60;;
15679;SDS011;15488;48.114;11.532;2023-07-22T12:32:11;1.83;;;1.73;;
15679;SDS011;15488;48.114;11.532;2023-07-22T12:34:38;1.98;;;1.60;;
15679;SDS011;15488;48.114;11.532;2023-07-22T12:37:05;1.67;;;1.58;;
15679;SDS011;15488;48.114;11.532;2023-07-22T12:39:33;1.75;;;1.65;;
15679;SDS011;15488;48.114;11.532;2023-07-22T12:42:00;1.70;;;1.60;;
15679;SDS011;15488;48.114;11.532;2023-07-22T12:44:28;2.38;;;1.75;;
15679;SDS011;15488;48.114;11.532;2023-07-22T12:46:55;3.78;;;1.98;;
15679;SDS011;15488;48.114;11.532;2023-07-22T12:49:24;1.58;;;1.48;;
15679;SDS011;15488;48.114;11.532;2023-07-22T12:51:52;2.03;;;1.60;;
15679;SDS011;15488;48.114;11.532;2023-07-22T12:54:20;1.50;;;1.40;;
15679;SDS011;15488;48.114;11.532;2023-07-22T12:56:48;1.95;;;1.85;;
15679;SDS011;15488;48.114;11.532;2023-07-22T12:59:15;1.90;;;1.80;;
15679;SDS011;15488;48.114;11.532;2023-07-22T13:01:42;2.13;;;1.70;;
15679;SDS011;15488;48.114;11.532;2023-07-22T13:04:10;2.78;;;1.50;;
15679;SDS011;15488;48.114;11.532;2023-07-22T13:06:39;2.47;;;1.80;;
15679;SDS011;15488;48.114;11.532;2023-07-22T13:09:06;1.85;;;1.75;;
15679;SDS011;15488;48.114;11.532;2023-07-22T13:11:34;1.70;;;1.60;;
15679;SDS011;15488;48.114;11.532;2023-07-22T13:14:02;2.63;;;1.80;;
15679;SDS011;15488;48.114;11.532;2023-07-22T13:16:29;1.92;;;1.52;;
15679;SDS011;15488;48.114;11.532;2023-07-22T13:18:57;2.10;;;1.92;;
15679;SDS011;15488;48.114;11.532;2023-07-22T13:21:25;1.70;;;1.60;;
15679;SDS011;15488;48.114;11.532;2023-07-22T13:23:54;2.00;;;1.90;;
15679;SDS011;15488;48.114;11.532;2023-07-22T13:26:22;1.90;;;1.80;;
15679;SDS011;15488;48.114;11.532;2023-07-22T13:28:49;1.60;;;1.50;;
15679;SDS011;15488;48.114;11.532;2023-07-22T13:31:17;1.70;;;1.60;;
15679;SDS011;15488;48.114;11.532;2023-07-22T13:33:45;2.20;;;2.00;;
15679;SDS011;15488;48.114;11.532;2023-07-22T13:36:12;1.90;;;1.70;;
15679;SDS011;15488;48.114;11.532;2023-07-22T13:38:40;2.15;;;1.92;;
15679;SDS011;15488;48.114;11.532;2023-07-22T13:41:09;2.90;;;2.70;;
15679;SDS011;15488;48.114;11.532;2023-07-22T13:43:36;2.95;;;2.53;;
15679;SDS011;15488;48.114;11.532;2023-07-22T13:46:03;3.65;;;3.45;;
15679;SDS011;15488;48.114;11.532;2023-07-22T13:48:31;4.38;;;4.07;;
15679;SDS011;15488;48.114;11.532;2023-07-22T13:50:58;4.40;;;4.10;;
15679;SDS011;15488;48.114;11.532;2023-07-22T13:53:26;4.20;;;3.85;;
15679;SDS011;15488;48.114;11.532;2023-07-22T13:55:53;4.65;;;4.35;;
15679;SDS011;15488;48.114;11.532;2023-07-22T13:58:22;2.80;;;2.70;;
15679;SDS011;15488;48.114;11.532;2023-07-22T14:00:50;2.47;;;2.35;;
15679;SDS011;15488;48.114;11.532;2023-07-22T14:03:20;2.63;;;2.42;;
15679;SDS011;15488;48.114;11.532;2023-07-22T14:05:47;2.22;;;2.13;;
15679;SDS011;15488;48.114;11.532;2023-07-22T14:08:15;3.97;;;3.78;;
15679;SDS011;15488;48.114;11.532;2023-07-22T14:10:42;3.75;;;3.55;;
15679;SDS011;15488;48.114;11.532;2023-07-22T14:13:09;3.45;;;3.25;;
15679;SDS011;15488;48.114;11.532;2023-07-22T14:15:40;4.30;;;4.05;;
15679;SDS011;15488;48.114;11.532;2023-07-22T14:18:08;4.25;;;4.05;;
15679;SDS011;15488;48.114;11.532;2023-07-22T14:20:35;4.78;;;4.53;;
15679;SDS011;15488;48.114;11.532;2023-07-22T14:23:03;3.65;;;3.33;;
15679;SDS011;15488;48.114;11.532;2023-07-22T14:25:30;2.90;;;2.80;;
15679;SDS011;15488;48.114;11.532;2023-07-22T14:27:58;2.65;;;2.55;;
15679;SDS011;15488;48.114;11.532;2023-07-22T14:30:25;3.60;;;3.40;;
15679;SDS011;15488;48.114;11.532;2023-07-22T14:32:54;3.50;;;3.30;;
15679;SDS011;15488;48.114;11.532;2023-07-22T14:35:22;3.60;;;3.40;;
15679;SDS011;15488;48.114;11.532;2023-07-22T14:37:49;3.90;;;3.70;;
15679;SDS011;15488;48.114;11.532;2023-07-22T14:40:17;3.95;;;3.60;;
15679;SDS011;15488;48.114;11.532;2023-07-22T14:42:44;3.90;;;3.70;;